Time;durP1;ratioP1;P1;durP2;ratioP2;P2;SDS_P1;SDS_P2;PMS_P1;PMS_P2;Temp;Humidity;BMP_temperature;BMP_pressure;BME280_temperature;BME280_humidity;BME280_pressure;Samples;Min_cycle;Max_cycle;Signal;HPM_P1;HPM_P2
2021/11/06 00:00:37;;;;;;;2.72;0.90;;;15.80;87.40;;;;;;4224671;28;20150;-58
2021/11/06 00:02:59;;;;;;;2.95;1.15;;;15.80;87.80;;;;;;4225252;28;20058;-56
2021/11/06 00:05:21;;;;;;;3.22;0.93;;;15.80;87.80;;;;;;4224228;28;20067;-57
2021/11/06 00:07:44;;;;;;;1.85;0.88;;;15.80;88.70;;;;;;4224268;28;20047;-58
2021/11/06 00:10:08;;;;;;;4.50;1.00;;;15.80;88.30;;;;;;4209338;28;20048;-56
2021/11/06 00:12:30;;;;;;;1.52;0.90;;;15.80;88.10;;;;;;4206851;28;20551;-58
2021/11/06 00:14:53;;;;;;;1.85;0.70;;;15.70;88.20;;;;;;4225010;28;20055;-58
2021/11/06 00:17:15;;;;;;;2.08;0.85;;;15.70;88.40;;;;;;4224991;28;20052;-57
2021/11/06 00:19:38;;;;;;;4.95;1.33;;;15.70;88.60;;;;;;4224719;28;20142;-57
2021/11/06 00:22:00;;;;;;;2.72;1.00;;;15.70;88.10;;;;;;4224737;28;20143;-57
2021/11/06 00:24:22;;;;;;;1.75;0.90;;;15.70;88.10;;;;;;4224743;28;20054;-57
2021/11/06 00:26:44;;;;;;;2.05;0.93;;;15.70;89.10;;;;;;4222945;28;20779;-58
2021/11/06 00:29:06;;;;;;;2.35;0.88;;;15.70;89.60;;;;;;4223643;28;20514;-58
2021/11/06 00:31:29;;;;;;;1.10;0.68;;;15.70;89.50;;;;;;4224530;28;20047;-57
2021/11/06 00:33:51;;;;;;;2.95;1.05;;;15.60;88.90;;;;;;4192336;28;20051;-58
2021/11/06 00:36:13;;;;;;;1.80;0.73;;;15.60;89.00;;;;;;4191144;28;20064;-58
2021/11/06 00:38:35;;;;;;;2.78;1.20;;;15.70;89.40;;;;;;4191035;28;20048;-56
2021/11/06 00:40:58;;;;;;;2.85;0.88;;;15.60;88.70;;;;;;4190780;28;20075;-57
2021/11/06 00:43:20;;;;;;;1.65;1.00;;;15.60;89.20;;;;;;4191112;28;20107;-58
2021/11/06 00:45:43;;;;;;;1.48;0.93;;;15.60;88.50;;;;;;4192806;28;20506;-58
2021/11/06 00:48:07;;;;;;;3.92;1.05;;;15.60;88.70;;;;;;4207533;28;20462;-56
2021/11/06 00:50:29;;;;;;;3.33;0.98;;;15.60;88.80;;;;;;4207290;28;20071;-57
2021/11/06 00:52:53;;;;;;;1.15;0.88;;;15.60;89.10;;;;;;4207214;28;20059;-57
2021/11/06 00:55:16;;;;;;;1.45;0.90;;;15.60;89.20;;;;;;4207422;28;20040;-56
2021/11/06 00:57:38;;;;;;;2.78;0.90;;;15.60;89.80;;;;;;4207759;28;20051;-57
2021/11/06 01:00:00;;;;;;;6.63;1.58;;;15.60;90.00;;;;;;4224420;28;20477;-56
2021/11/06 01:02:23;;;;;;;2.35;1.15;;;15.50;89.80;;;;;;4223835;28;20100;-57
2021/11/06 01:04:46;;;;;;;5.82;1.42;;;15.60;89.50;;;;;;4214556;28;20052;-58
2021/11/06 01:07:08;;;;;;;2.05;1.13;;;15.50;88.90;;;;;;4207667;28;20062;-59
2021/11/06 01:09:30;;;;;;;1.58;1.20;;;15.50;89.00;;;;;;4223979;28;20226;-57
2021/11/06 01:11:53;;;;;;;1.58;0.93;;;15.50;89.00;;;;;;4224422;28;20062;-56
2021/11/06 01:14:15;;;;;;;2.45;1.02;;;15.50;89.70;;;;;;4224430;28;20059;-58
2021/11/06 01:16:37;;;;;;;5.47;1.52;;;15.50;89.50;;;;;;4224305;28;20044;-58
2021/11/06 01:19:00;;;;;;;1.90;1.00;;;15.50;89.20;;;;;;4224065;28;20152;-58
2021/11/06 01:21:23;;;;;;;2.17;1.27;;;15.50;90.00;;;;;;4224388;28;20066;-53
2021/11/06 01:23:45;;;;;;;3.13;1.67;;;15.50;90.10;;;;;;4224195;28;20067;-58
2021/11/06 01:26:07;;;;;;;1.85;1.17;;;15.50;90.30;;;;;;4223658;28;20489;-57
2021/11/06 01:28:29;;;;;;;0.98;0.80;;;15.50;90.40;;;;;;4224124;28;20059;-57
2021/11/06 01:30:51;;;;;;;2.63;1.38;;;15.50;90.30;;;;;;4224132;28;20442;-57
2021/11/06 01:33:13;;;;;;;1.10;0.93;;;15.50;90.40;;;;;;4223956;28;20109;-59
2021/11/06 01:35:35;;;;;;;2.88;1.13;;;15.50;90.40;;;;;;4224133;28;20056;-57
2021/11/06 01:37:59;;;;;;;1.58;1.30;;;15.40;90.40;;;;;;4224376;28;20055;-58
2021/11/06 01:40:22;;;;;;;3.17;1.08;;;15.40;90.50;;;;;;4223841;28;20052;-57
2021/11/06 01:42:45;;;;;;;2.28;1.30;;;15.40;90.70;;;;;;4224102;28;20128;-58
2021/11/06 01:45:08;;;;;;;2.15;1.30;;;15.40;90.70;;;;;;4223807;28;20048;-59
2021/11/06 01:47:30;;;;;;;0.85;0.77;;;15.40;90.70;;;;;;4224142;28;20554;-57
2021/11/06 01:49:52;;;;;;;1.55;1.40;;;15.40;90.60;;;;;;4208571;28;20101;-57
2021/11/06 01:52:15;;;;;;;2.20;1.17;;;15.40;90.50;;;;;;4206823;28;20059;-58
2021/11/06 01:54:38;;;;;;;3.45;1.42;;;15.40;90.70;;;;;;4223922;28;20482;-56
2021/11/06 01:57:01;;;;;;;3.45;1.33;;;15.40;90.70;;;;;;4224118;28;20040;-57
2021/11/06 01:59:24;;;;;;;2.40;1.25;;;15.40;90.90;;;;;;4223465;28;20089;-56
2021/11/06 02:01:50;;;;;;;4.30;1.85;;;15.40;90.90;;;;;;4226831;28;20045;-58
2021/11/06 02:04:12;;;;;;;3.58;1.50;;;15.40;91.20;;;;;;4227019;28;20051;-58
2021/11/06 02:06:34;;;;;;;1.70;1.50;;;15.40;90.90;;;;;;4194765;28;20498;-56
2021/11/06 02:08:56;;;;;;;4.25;1.42;;;15.40;90.80;;;;;;4193485;28;20048;-58
2021/11/06 02:11:20;;;;;;;6.22;1.55;;;15.40;90.80;;;;;;4195962;28;20076;-57
2021/11/06 02:13:42;;;;;;;2.78;1.73;;;15.40;90.70;;;;;;4209877;28;20056;-57
2021/11/06 02:16:04;;;;;;;1.30;1.20;;;15.40;90.60;;;;;;4209875;28;20048;-58
2021/11/06 02:18:27;;;;;;;1.75;1.50;;;15.40;90.60;;;;;;4210049;28;20413;-57
2021/11/06 02:20:59;;;;;;;2.70;1.70;;;15.30;90.80;;;;;;4225121;28;20058;-57
2021/11/06 02:23:21;;;;;;;3.33;1.30;;;15.40;90.60;;;;;;4226251;28;20074;-55
2021/11/06 02:25:43;;;;;;;4.05;2.28;;;15.40;90.90;;;;;;4215649;28;20054;-57
2021/11/06 02:28:26;;;;;;;3.47;2.50;;;15.40;90.80;;;;;;4209434;28;20387;-57
2021/11/06 02:30:48;;;;;;;2.00;1.48;;;15.40;90.90;;;;;;4226656;28;20782;-55
2021/11/06 02:33:10;;;;;;;4.10;1.67;;;15.40;90.90;;;;;;4208482;28;20421;-56
2021/11/06 02:35:32;;;;;;;5.15;2.28;;;15.30;90.80;;;;;;4192852;28;20131;-57
2021/11/06 02:37:56;;;;;;;5.50;1.60;;;15.30;90.90;;;;;;4193036;28;20656;-57
2021/11/06 02:40:18;;;;;;;5.55;1.88;;;15.30;90.80;;;;;;4197139;28;20075;-58
2021/11/06 02:42:42;;;;;;;3.13;1.67;;;15.30;90.80;;;;;;4194172;28;20540;-57
2021/11/06 02:45:04;;;;;;;2.17;2.00;;;15.30;90.60;;;;;;4202048;28;20401;-58
2021/11/06 02:47:26;;;;;;;2.28;1.52;;;15.30;90.80;;;;;;4209008;28;20488;-56
2021/11/06 02:49:49;;;;;;;3.25;1.80;;;15.30;90.80;;;;;;4209491;28;20056;-58
2021/11/06 02:52:12;;;;;;;2.47;1.90;;;15.30;91.00;;;;;;4209475;28;20044;-58
2021/11/06 02:54:36;;;;;;;3.35;1.90;;;15.30;90.80;;;;;;4209648;28;20059;-56
2021/11/06 02:56:58;;;;;;;3.95;1.80;;;15.30;90.80;;;;;;4209366;28;20044;-57
2021/11/06 02:59:20;;;;;;;3.28;1.63;;;15.30;90.90;;;;;;4209474;28;20050;-58
2021/11/06 03:01:43;;;;;;;2.22;1.83;;;15.30;90.70;;;;;;4208921;28;20044;-58
2021/11/06 03:04:09;;;;;;;3.85;2.33;;;15.30;91.20;;;;;;4208887;28;20694;-58
2021/11/06 03:06:32;;;;;;;3.17;2.00;;;15.40;91.20;;;;;;4200299;28;20524;-57
2021/11/06 03:08:54;;;;;;;5.10;2.45;;;15.60;91.10;;;;;;4225941;28;20044;-57
2021/11/06 03:11:18;;;;;;;3.40;2.30;;;15.70;91.00;;;;;;4225914;28;20116;-57
2021/11/06 03:13:41;;;;;;;3.70;2.28;;;15.70;90.70;;;;;;4225756;28;20040;-58
2021/11/06 03:16:03;;;;;;;3.42;2.08;;;15.80;90.70;;;;;;4226012;28;20497;-58
2021/11/06 03:18:25;;;;;;;3.50;2.15;;;15.90;90.60;;;;;;4210236;28;20091;-58
2021/11/06 03:20:47;;;;;;;8.60;2.95;;;15.90;90.40;;;;;;4225564;28;20504;-57
2021/11/06 03:23:10;;;;;;;3.47;2.45;;;15.90;90.40;;;;;;4224408;28;20057;-57
2021/11/06 03:25:32;;;;;;;3.50;2.45;;;15.90;90.50;;;;;;4210142;28;20059;-57
2021/11/06 03:27:56;;;;;;;2.65;2.45;;;15.90;90.40;;;;;;4208678;28;20040;-59
2021/11/06 03:30:18;;;;;;;2.85;2.20;;;15.90;90.30;;;;;;4225629;28;20135;-58
2021/11/06 03:32:41;;;;;;;3.97;2.13;;;15.90;90.40;;;;;;4192056;28;20059;-58
2021/11/06 03:35:04;;;;;;;3.70;2.53;;;15.90;90.30;;;;;;4191804;28;20131;-58
2021/11/06 03:37:26;;;;;;;5.18;2.20;;;15.90;90.40;;;;;;4192054;28;20048;-59
2021/11/06 03:39:48;;;;;;;5.13;2.15;;;15.80;90.20;;;;;;4192005;28;20041;-58
2021/11/06 03:42:10;;;;;;;3.13;2.42;;;15.80;90.20;;;;;;4192208;28;20517;-58
2021/11/06 03:44:35;;;;;;;4.40;2.80;;;15.80;90.30;;;;;;4201802;28;20048;-57
2021/11/06 03:46:57;;;;;;;7.13;3.05;;;15.80;90.30;;;;;;4208492;28;20048;-58
2021/11/06 03:49:19;;;;;;;3.75;2.25;;;15.80;90.30;;;;;;4208141;28;20568;-58
2021/11/06 03:51:41;;;;;;;5.60;2.63;;;15.70;90.20;;;;;;4214090;28;20070;-58
2021/11/06 03:54:03;;;;;;;3.35;2.78;;;15.70;90.30;;;;;;4208615;28;20093;-58
2021/11/06 03:56:26;;;;;;;5.00;2.95;;;15.70;90.40;;;;;;4225302;28;20050;-59
2021/11/06 03:58:48;;;;;;;4.72;3.40;;;15.70;90.20;;;;;;4209373;28;20044;-58
2021/11/06 04:01:11;;;;;;;3.28;2.90;;;15.70;90.50;;;;;;4224364;28;20047;-58
2021/11/06 04:03:35;;;;;;;5.43;3.20;;;15.70;90.40;;;;;;4223687;28;20122;-58
2021/11/06 04:05:56;;;;;;;4.80;2.95;;;15.80;90.30;;;;;;4224745;28;20048;-57
2021/11/06 04:08:19;;;;;;;4.53;2.88;;;15.80;90.30;;;;;;4224574;28;20048;-58
2021/11/06 04:10:41;;;;;;;3.72;3.28;;;15.90;90.30;;;;;;4222242;28;20058;-58
2021/11/06 04:13:04;;;;;;;6.03;3.60;;;15.90;90.20;;;;;;4224373;28;20383;-58
2021/11/06 04:15:26;;;;;;;7.43;3.15;;;15.90;90.20;;;;;;4224708;28;20055;-54
2021/11/06 04:17:50;;;;;;;3.10;2.80;;;15.90;90.20;;;;;;4224821;28;20066;-59
2021/11/06 04:20:12;;;;;;;3.63;2.92;;;15.90;90.20;;;;;;4191749;28;20051;-57
2021/11/06 04:22:35;;;;;;;4.38;3.05;;;15.90;90.20;;;;;;4191670;28;20072;-58
2021/11/06 04:24:57;;;;;;;3.40;3.03;;;15.90;90.20;;;;;;4191641;28;20136;-57
2021/11/06 04:27:19;;;;;;;3.30;3.00;;;15.90;90.20;;;;;;4190818;28;20181;-56
2021/11/06 04:29:41;;;;;;;4.80;3.28;;;15.90;90.20;;;;;;4191532;28;20486;-58
2021/11/06 04:32:04;;;;;;;4.75;3.28;;;15.90;90.10;;;;;;4160192;28;20514;-57
2021/11/06 04:34:27;;;;;;;4.35;3.85;;;16.00;90.00;;;;;;4158804;28;20045;-59
2021/11/06 04:36:49;;;;;;;7.60;4.13;;;16.10;89.60;;;;;;4158593;28;20045;-59
2021/11/06 04:39:12;;;;;;;8.02;3.58;;;16.10;89.40;;;;;;4158915;28;20056;-58
2021/11/06 04:41:34;;;;;;;4.78;3.17;;;16.20;89.10;;;;;;4158572;28;20513;-58
2021/11/06 04:43:56;;;;;;;4.47;3.22;;;16.20;89.00;;;;;;4158328;28;20450;-58
2021/11/06 04:46:18;;;;;;;7.05;3.20;;;16.10;88.90;;;;;;4158270;28;20077;-56
2021/11/06 04:48:40;;;;;;;5.47;3.80;;;16.20;89.00;;;;;;4158444;28;20495;-57
2021/11/06 04:51:03;;;;;;;5.80;3.83;;;16.20;88.90;;;;;;4170676;28;20413;-57
2021/11/06 04:53:26;;;;;;;4.13;3.33;;;16.10;88.80;;;;;;4174794;28;20590;-58
2021/11/06 04:55:50;;;;;;;6.63;3.92;;;16.10;88.90;;;;;;4174919;28;20045;-56
2021/11/06 04:58:13;;;;;;;12.70;3.78;;;16.10;89.20;;;;;;4174720;28;20406;-57
2021/11/06 05:00:35;;;;;;;6.68;4.68;;;16.10;89.30;;;;;;4158192;28;20046;-58
2021/11/06 05:02:57;;;;;;;6.13;3.92;;;16.00;90.10;;;;;;4158380;28;20128;-58
2021/11/06 05:05:19;;;;;;;5.10;3.63;;;16.00;89.60;;;;;;4158150;28;20049;-58
2021/11/06 05:07:43;;;;;;;4.25;3.85;;;16.00;89.40;;;;;;4158284;28;20045;-57
2021/11/06 05:10:07;;;;;;;9.18;3.80;;;16.00;89.60;;;;;;4163861;28;20064;-58
2021/11/06 05:12:29;;;;;;;5.03;4.50;;;16.00;89.80;;;;;;4174878;28;20152;-54
2021/11/06 05:14:51;;;;;;;5.47;4.22;;;16.00;89.80;;;;;;4174060;28;20045;-59
2021/11/06 05:17:14;;;;;;;6.03;4.88;;;16.10;89.50;;;;;;4174612;28;20422;-59
2021/11/06 05:19:37;;;;;;;6.18;4.80;;;16.10;89.20;;;;;;4198539;28;20055;-59
2021/11/06 05:21:59;;;;;;;5.80;4.93;;;16.20;89.00;;;;;;4224285;28;20555;-58
2021/11/06 05:24:22;;;;;;;6.90;4.70;;;16.20;88.70;;;;;;4224010;28;20105;-58
2021/11/06 05:26:44;;;;;;;5.18;4.68;;;16.20;88.70;;;;;;4224161;28;20075;-58
2021/11/06 05:29:09;;;;;;;6.53;5.30;;;16.20;88.60;;;;;;4223974;28;20046;-58
2021/11/06 05:31:31;;;;;;;5.13;4.72;;;16.20;88.60;;;;;;4207363;28;20051;-58
2021/11/06 05:33:53;;;;;;;6.93;5.15;;;16.20;88.80;;;;;;4207698;28;20553;-57
2021/11/06 05:36:15;;;;;;;6.80;4.90;;;16.10;88.90;;;;;;4209901;28;20502;-58
2021/11/06 05:38:37;;;;;;;7.20;5.35;;;16.10;89.00;;;;;;4210656;28;20130;-58
2021/11/06 05:41:01;;;;;;;6.53;4.95;;;16.10;89.10;;;;;;4210600;28;20101;-58
2021/11/06 05:43:22;;;;;;;7.03;5.10;;;16.10;89.30;;;;;;4196668;28;20063;-58
2021/11/06 05:45:45;;;;;;;8.25;5.68;;;16.10;90.00;;;;;;4193606;28;20071;-58
2021/11/06 05:48:07;;;;;;;6.45;5.30;;;16.10;89.20;;;;;;4193834;28;20053;-59
2021/11/06 05:50:29;;;;;;;5.53;5.00;;;16.10;88.90;;;;;;4207262;28;20048;-58
2021/11/06 05:52:51;;;;;;;6.15;5.28;;;16.10;88.80;;;;;;4212069;28;20086;-58
2021/11/06 05:55:15;;;;;;;6.47;5.68;;;16.10;88.80;;;;;;4210254;28;20506;-59
2021/11/06 05:57:39;;;;;;;6.35;5.07;;;16.10;88.60;;;;;;4211681;28;20055;-58
2021/11/06 06:00:01;;;;;;;7.10;6.18;;;16.10;88.60;;;;;;4210273;28;20472;-59
2021/11/06 06:02:25;;;;;;;9.18;6.07;;;16.10;88.70;;;;;;4210425;28;20596;-59
2021/11/06 06:04:47;;;;;;;7.07;5.80;;;16.10;88.60;;;;;;4210171;28;20044;-56
2021/11/06 06:07:12;;;;;;;7.93;6.55;;;16.20;88.60;;;;;;4210036;28;20417;-59
2021/11/06 06:09:34;;;;;;;7.75;6.90;;;16.20;88.40;;;;;;4226842;28;20056;-57
2021/11/06 06:11:56;;;;;;;7.25;6.35;;;16.20;88.50;;;;;;4226868;28;20040;-59
2021/11/06 06:14:20;;;;;;;7.22;6.53;;;16.20;88.40;;;;;;4226882;28;20117;-59
2021/11/06 06:16:42;;;;;;;7.35;6.65;;;16.40;88.30;;;;;;4211279;28;20056;-58
2021/11/06 06:19:04;;;;;;;7.53;6.18;;;16.40;88.00;;;;;;4209544;28;20102;-59
2021/11/06 06:21:26;;;;;;;9.30;6.68;;;16.40;87.70;;;;;;4209847;28;20040;-58
2021/11/06 06:23:48;;;;;;;8.05;6.57;;;16.50;87.50;;;;;;4209872;28;20726;-59
2021/11/06 06:26:11;;;;;;;6.95;6.20;;;16.50;87.30;;;;;;4209788;28;20137;-58
2021/11/06 06:28:33;;;;;;;7.43;6.63;;;16.40;87.30;;;;;;4210003;28;20136;-58
2021/11/06 06:30:57;;;;;;;10.32;6.38;;;16.40;87.30;;;;;;4211157;28;20539;-59
2021/11/06 06:33:19;;;;;;;7.50;6.80;;;16.40;87.40;;;;;;4209822;28;20052;-58
2021/11/06 06:35:41;;;;;;;9.43;7.05;;;16.30;87.50;;;;;;4211032;28;20044;-58
2021/11/06 06:38:03;;;;;;;7.90;6.93;;;16.30;87.30;;;;;;4192927;28;20055;-59
2021/11/06 06:40:25;;;;;;;9.02;7.43;;;16.30;87.90;;;;;;4208733;28;20079;-58
2021/11/06 06:42:48;;;;;;;10.68;6.78;;;16.40;88.00;;;;;;4211184;28;20051;-58
2021/11/06 06:45:10;;;;;;;8.60;7.13;;;16.40;87.70;;;;;;4210898;28;20059;-58
2021/11/06 06:47:34;;;;;;;10.07;7.40;;;16.40;87.40;;;;;;4209432;28;20047;-58
2021/11/06 06:49:56;;;;;;;8.20;7.35;;;16.40;87.20;;;;;;4209330;28;20130;-59
2021/11/06 06:52:19;;;;;;;8.43;7.18;;;16.40;87.40;;;;;;4211074;28;20551;-58
2021/11/06 06:54:41;;;;;;;8.52;7.72;;;16.30;87.70;;;;;;4210301;28;20490;-59
2021/11/06 06:57:03;;;;;;;8.90;7.15;;;16.30;87.70;;;;;;4210482;28;20109;-59
2021/11/06 06:59:25;;;;;;;9.45;8.02;;;16.40;87.70;;;;;;4209073;28;20120;-59
2021/11/06 07:01:51;;;;;;;8.93;7.40;;;16.40;87.80;;;;;;4226210;28;20080;-59
2021/11/06 07:04:14;;;;;;;9.73;7.57;;;16.40;87.30;;;;;;4226144;28;20047;-59
2021/11/06 07:06:36;;;;;;;8.95;7.18;;;16.40;87.20;;;;;;4225834;28;20043;-59
2021/11/06 07:09:00;;;;;;;7.80;6.88;;;16.40;88.30;;;;;;4207907;28;20139;-58
2021/11/06 07:11:22;;;;;;;9.27;7.57;;;16.40;87.40;;;;;;4208615;28;20041;-59
2021/11/06 07:13:45;;;;;;;10.40;6.88;;;16.40;88.30;;;;;;4209248;28;20051;-58
2021/11/06 07:16:07;;;;;;;9.70;7.55;;;16.40;87.50;;;;;;4214967;28;20108;-59
2021/11/06 07:18:29;;;;;;;7.97;7.25;;;16.40;87.60;;;;;;4225379;28;20059;-58
2021/11/06 07:20:52;;;;;;;8.63;7.72;;;16.30;88.50;;;;;;4225738;28;20071;-59
2021/11/06 07:23:15;;;;;;;11.35;7.43;;;16.30;87.80;;;;;;4225617;28;20524;-59
2021/11/06 07:25:36;;;;;;;8.13;7.30;;;16.20;87.90;;;;;;4225701;28;20476;-59
2021/11/06 07:27:59;;;;;;;8.02;6.75;;;16.20;88.00;;;;;;4225713;28;20438;-60
2021/11/06 07:30:21;;;;;;;7.78;6.72;;;16.20;88.70;;;;;;4225666;28;20059;-60
2021/11/06 07:32:44;;;;;;;8.65;6.70;;;16.20;88.10;;;;;;4209214;28;20413;-59
2021/11/06 07:35:06;;;;;;;8.55;7.22;;;16.30;87.50;;;;;;4225562;28;20047;-59
2021/11/06 07:37:32;;;;;;;9.90;7.55;;;16.30;86.80;;;;;;4224703;28;20057;-58
2021/11/06 07:39:54;;;;;;;9.52;6.53;;;16.30;86.40;;;;;;4223238;28;20055;-58
2021/11/06 07:42:17;;;;;;;8.70;7.47;;;16.40;85.80;;;;;;4209984;28;20047;-60
2021/11/06 07:44:39;;;;;;;6.50;4.63;;;16.50;85.00;;;;;;4225352;28;20776;-59
2021/11/06 07:47:01;;;;;;;9.18;6.80;;;16.50;84.20;;;;;;4225559;28;20466;-59
2021/11/06 07:49:23;;;;;;;7.47;6.70;;;16.60;83.70;;;;;;4225530;28;20108;-58
2021/11/06 07:51:46;;;;;;;8.35;6.75;;;16.60;83.30;;;;;;4225552;28;20048;-59
2021/11/06 07:54:09;;;;;;;9.07;6.75;;;16.50;83.00;;;;;;4225180;28;20740;-59
2021/11/06 07:56:34;;;;;;;8.18;6.35;;;16.50;82.80;;;;;;4212180;28;20052;-59
2021/11/06 07:58:57;;;;;;;8.18;6.70;;;16.50;82.80;;;;;;4224807;28;20909;-58
2021/11/06 08:01:20;;;;;;;9.77;8.88;;;16.40;82.80;;;;;;4225316;28;20081;-59
2021/11/06 08:03:43;;;;;;;9.18;6.15;;;16.40;82.80;;;;;;4217815;28;20386;-58
2021/11/06 08:06:05;;;;;;;8.65;6.45;;;16.30;83.00;;;;;;4209730;28;20040;-58
2021/11/06 08:08:27;;;;;;;9.95;7.43;;;16.30;83.10;;;;;;4208136;28;20044;-59
2021/11/06 08:10:50;;;;;;;12.02;7.72;;;16.20;82.90;;;;;;4208153;28;20055;-58
2021/11/06 08:13:13;;;;;;;10.55;7.35;;;16.20;83.10;;;;;;4207552;28;20050;-57
2021/11/06 08:15:35;;;;;;;7.40;6.70;;;16.10;83.10;;;;;;4211167;28;20100;-58
2021/11/06 08:17:57;;;;;;;10.02;7.63;;;16.10;83.30;;;;;;4224705;28;20043;-59
2021/11/06 08:20:20;;;;;;;8.05;5.75;;;16.10;83.40;;;;;;4208101;28;20040;-59
2021/11/06 08:22:43;;;;;;;7.20;6.15;;;16.00;83.60;;;;;;4224995;28;20067;-60
2021/11/06 08:25:08;;;;;;;10.23;6.38;;;16.00;83.70;;;;;;4215747;28;20418;-58
2021/11/06 08:27:33;;;;;;;10.05;7.53;;;16.00;83.80;;;;;;4207928;28;20136;-58
2021/11/06 08:29:55;;;;;;;7.80;7.00;;;15.90;83.90;;;;;;4207764;28;20044;-59
2021/11/06 08:32:17;;;;;;;8.68;7.85;;;15.90;83.90;;;;;;4210515;28;20070;-59
2021/11/06 08:34:39;;;;;;;8.20;4.90;;;15.80;83.90;;;;;;4210844;28;20050;-58
2021/11/06 08:37:02;;;;;;;7.60;6.32;;;15.80;84.00;;;;;;4207969;28;20489;-59
2021/11/06 08:39:27;;;;;;;9.63;6.70;;;15.80;84.20;;;;;;4212548;28;20051;-59
2021/11/06 08:41:50;;;;;;;9.77;6.05;;;15.70;84.20;;;;;;4205709;28;20056;-59
2021/11/06 08:44:14;;;;;;;7.80;6.18;;;15.70;84.20;;;;;;4224602;28;20409;-59
2021/11/06 08:46:36;;;;;;;9.70;6.68;;;15.70;84.20;;;;;;4224554;28;20089;-59
2021/11/06 08:48:58;;;;;;;9.60;7.22;;;15.60;84.10;;;;;;4224683;28;20044;-59
2021/11/06 08:51:20;;;;;;;7.18;5.65;;;15.60;84.30;;;;;;4224671;28;20047;-59
2021/11/06 08:53:45;;;;;;;7.85;6.88;;;15.60;84.40;;;;;;4224495;28;20071;-59
2021/11/06 08:56:07;;;;;;;8.52;7.13;;;15.60;84.30;;;;;;4207638;28;20055;-59
2021/11/06 08:58:29;;;;;;;5.75;5.22;;;15.60;84.40;;;;;;4207771;28;20130;-59
2021/11/06 09:00:55;;;;;;;12.13;7.43;;;15.60;84.50;;;;;;4224423;28;20066;-58
2021/11/06 09:03:22;;;;;;;6.95;6.00;;;15.50;84.50;;;;;;4224523;28;20052;-58
2021/11/06 09:05:49;;;;;;;9.98;6.55;;;15.50;84.50;;;;;;4224547;28;20767;-59
2021/11/06 09:08:15;;;;;;;15.15;6.32;;;15.50;84.60;;;;;;4224541;28;20043;-59
2021/11/06 09:10:37;;;;;;;8.20;4.72;;;15.50;84.60;;;;;;4225720;28;20062;-59
2021/11/06 09:12:59;;;;;;;10.40;7.45;;;15.40;84.70;;;;;;4227856;28;20060;-59
2021/11/06 09:15:21;;;;;;;10.25;5.82;;;15.40;84.70;;;;;;4227627;28;20134;-59
2021/11/06 09:17:45;;;;;;;8.68;7.05;;;15.40;84.80;;;;;;4227371;28;20047;-59
2021/11/06 09:20:09;;;;;;;8.85;7.45;;;15.40;84.80;;;;;;4211841;28;20553;-59
2021/11/06 09:22:31;;;;;;;7.40;6.60;;;15.40;84.80;;;;;;4227636;28;20489;-59
2021/11/06 09:24:54;;;;;;;9.23;6.63;;;15.40;85.60;;;;;;4227126;28;20074;-59
2021/11/06 09:27:18;;;;;;;8.98;6.82;;;15.40;84.90;;;;;;4227553;28;20057;-59
2021/11/06 09:29:41;;;;;;;8.00;7.22;;;15.40;84.90;;;;;;4212141;28;20145;-59
2021/11/06 09:32:03;;;;;;;10.40;7.68;;;15.40;84.90;;;;;;4210629;28;20079;-59
2021/11/06 09:34:26;;;;;;;9.93;6.85;;;15.40;84.90;;;;;;4193943;28;20640;-59
2021/11/06 09:36:49;;;;;;;10.75;6.68;;;15.30;84.90;;;;;;4193955;28;20071;-57
2021/11/06 09:39:13;;;;;;;7.07;4.30;;;15.40;85.10;;;;;;4210781;28;20477;-55
2021/11/06 09:41:35;;;;;;;6.65;5.85;;;15.30;85.00;;;;;;4196554;28;20040;-55
2021/11/06 09:43:57;;;;;;;10.70;7.65;;;15.30;85.20;;;;;;4196869;28;20105;-58
2021/11/06 09:46:20;;;;;;;8.63;7.13;;;15.30;85.10;;;;;;4210572;28;20047;-58
2021/11/06 09:48:44;;;;;;;8.85;6.43;;;15.30;85.10;;;;;;4227285;28;20434;-59
2021/11/06 09:51:08;;;;;;;11.23;7.53;;;15.30;85.10;;;;;;4227042;28;20059;-58
2021/11/06 09:53:32;;;;;;;8.95;5.05;;;15.30;85.20;;;;;;4227236;28;20050;-57
2021/11/06 09:55:55;;;;;;;9.88;5.70;;;15.30;85.10;;;;;;4226436;28;20421;-56
2021/11/06 09:58:18;;;;;;;12.10;7.13;;;15.20;85.00;;;;;;4225033;28;20055;-58
2021/11/06 10:00:40;;;;;;;6.15;5.03;;;15.20;85.20;;;;;;4227243;28;20370;-58
2021/11/06 10:03:02;;;;;;;8.07;4.82;;;15.40;85.20;;;;;;4226948;28;20550;-59
2021/11/06 10:05:52;;;;;;;7.63;5.07;;;15.60;84.50;;;;;;4225830;28;20051;-56
2021/11/06 10:08:21;;;;;;;8.95;7.00;;;15.90;83.00;;;;;;4177795;28;20051;-59
2021/11/06 10:10:44;;;;;;;8.88;6.68;;;16.30;81.30;;;;;;4191866;28;20044;-59
2021/11/06 10:13:06;;;;;;;5.68;3.55;;;16.70;79.70;;;;;;4197388;28;20065;-59
2021/11/06 10:15:29;;;;;;;6.47;5.40;;;17.00;78.80;;;;;;4211056;28;20051;-58
2021/11/06 10:17:51;;;;;;;8.93;6.55;;;17.40;76.10;;;;;;4193761;28;20556;-58
2021/11/06 10:20:25;;;;;;;9.90;7.18;;;17.60;74.60;;;;;;4209972;28;20089;-58
2021/11/06 10:22:47;;;;;;;3.13;2.50;;;17.90;73.40;;;;;;4210575;28;20052;-57
2021/11/06 10:25:11;;;;;;;7.68;6.07;;;18.10;72.30;;;;;;4217618;28;20070;-56
2021/11/06 10:27:34;;;;;;;8.68;5.70;;;18.20;71.40;;;;;;4226800;28;20460;-58
2021/11/06 10:30:08;;;;;;;7.35;5.32;;;18.30;70.60;;;;;;4226624;28;20071;-56
2021/11/06 10:32:30;;;;;;;10.00;7.13;;;18.40;70.30;;;;;;4192968;28;20045;-55
2021/11/06 10:34:53;;;;;;;8.35;5.93;;;18.40;70.20;;;;;;4196415;28;20072;-56
2021/11/06 10:37:15;;;;;;;9.13;5.85;;;18.50;71.30;;;;;;4215423;28;20090;-55
2021/11/06 10:39:38;;;;;;;5.53;4.57;;;18.40;70.40;;;;;;4226382;28;20036;-56
2021/11/06 10:42:13;;;;;;;11.32;7.03;;;18.30;70.30;;;;;;4226557;28;20410;-54
2021/11/06 10:44:35;;;;;;;7.35;6.35;;;18.30;70.50;;;;;;4225755;28;20505;-58
2021/11/06 10:46:57;;;;;;;9.95;6.18;;;18.20;70.60;;;;;;4226329;28;20409;-58
2021/11/06 10:49:36;;;;;;;8.75;5.68;;;18.20;70.90;;;;;;4226384;28;20050;-56
2021/11/06 10:52:03;;;;;;;7.57;5.45;;;18.20;70.60;;;;;;4209195;28;20093;-56
2021/11/06 10:54:25;;;;;;;7.07;5.05;;;18.30;70.30;;;;;;4225676;28;20564;-57
2021/11/06 10:56:55;;;;;;;7.70;6.47;;;18.30;70.00;;;;;;4224647;28;20476;-58
2021/11/06 10:59:21;;;;;;;6.85;6.15;;;18.30;70.00;;;;;;4198628;28;20036;-59
2021/11/06 11:01:45;;;;;;;7.15;6.05;;;18.20;70.20;;;;;;4211074;28;20105;-58
2021/11/06 11:04:09;;;;;;;6.97;5.68;;;18.10;70.40;;;;;;4209226;28;20565;-57
2021/11/06 11:06:38;;;;;;;9.40;6.50;;;18.10;70.90;;;;;;4225835;28;20481;-57
2021/11/06 11:09:01;;;;;;;8.75;6.43;;;17.90;71.30;;;;;;4225896;28;20058;-56
2021/11/06 11:11:27;;;;;;;7.95;6.07;;;17.90;71.60;;;;;;4226006;28;20417;-58
2021/11/06 11:13:51;;;;;;;6.82;4.63;;;17.90;71.70;;;;;;4225826;28;20074;-58
2021/11/06 11:16:16;;;;;;;8.10;6.65;;;17.90;72.00;;;;;;4226126;28;20052;-58
2021/11/06 11:18:40;;;;;;;12.63;6.80;;;17.80;72.00;;;;;;4225441;28;20051;-58
2021/11/06 11:21:11;;;;;;;7.47;4.03;;;17.80;72.20;;;;;;4225744;28;20767;-57
2021/11/06 11:23:34;;;;;;;8.27;6.88;;;17.80;73.00;;;;;;4223859;28;20059;-58
2021/11/06 11:25:56;;;;;;;8.60;6.38;;;17.80;73.00;;;;;;4225807;28;20131;-56
2021/11/06 11:28:18;;;;;;;15.65;7.00;;;17.90;72.60;;;;;;4225460;28;20497;-58
2021/11/06 11:30:41;;;;;;;9.15;6.45;;;18.00;72.30;;;;;;4225462;28;20051;-59
2021/11/06 11:33:15;;;;;;;7.72;6.47;;;18.00;72.20;;;;;;4222866;28;20048;-57
2021/11/06 11:35:40;;;;;;;10.45;5.97;;;18.00;72.30;;;;;;4225423;28;20071;-58
2021/11/06 11:38:02;;;;;;;7.30;4.30;;;18.00;72.20;;;;;;4224937;28;20062;-58
2021/11/06 11:40:29;;;;;;;8.73;5.72;;;18.10;72.00;;;;;;4225275;28;20074;-58
2021/11/06 11:42:59;;;;;;;9.23;5.80;;;18.00;71.80;;;;;;4209081;28;20135;-59
2021/11/06 11:45:34;;;;;;;10.18;6.15;;;17.90;71.80;;;;;;4225531;28;20089;-59
2021/11/06 11:48:03;;;;;;;8.75;5.40;;;17.90;72.00;;;;;;4216364;27;20051;-57
2021/11/06 11:50:31;;;;;;;7.03;4.35;;;17.80;72.10;;;;;;4204489;28;20059;-58
2021/11/06 11:52:54;;;;;;;11.13;6.97;;;17.80;72.20;;;;;;4207818;28;20046;-57
2021/11/06 11:55:19;;;;;;;8.48;5.97;;;17.70;72.40;;;;;;4224859;28;20453;-57
2021/11/06 11:57:43;;;;;;;8.50;5.95;;;17.70;72.80;;;;;;4225010;28;20061;-58
2021/11/06 12:00:40;;;;;;;9.45;4.65;;;17.50;73.10;;;;;;4221731;28;20043;-55
2021/11/06 12:03:05;;;;;;;7.75;4.85;;;17.40;73.50;;;;;;4236992;27;20451;-57
2021/11/06 12:05:46;;;;;;;6.70;5.32;;;17.40;74.00;;;;;;4224457;28;20782;-57
2021/11/06 12:08:34;;;;;;;4.25;3.72;;;17.30;74.40;;;;;;4199653;28;20087;-56
2021/11/06 12:10:59;;;;;;;8.10;5.45;;;17.30;74.50;;;;;;4221886;28;20049;-58
2021/11/06 12:13:35;;;;;;;8.10;6.20;;;17.40;74.30;;;;;;4209499;28;20101;-58
2021/11/06 12:15:58;;;;;;;8.60;5.82;;;17.50;73.90;;;;;;4221074;28;20047;-58
2021/11/06 12:18:54;;;;;;;8.45;5.65;;;17.50;73.70;;;;;;4222774;28;20124;-58
2021/11/06 12:21:27;;;;;;;6.85;4.32;;;17.50;73.50;;;;;;4207180;28;20807;-56
2021/11/06 12:23:52;;;;;;;4.90;4.05;;;17.60;73.20;;;;;;4198081;28;20131;-58
2021/11/06 12:26:15;;;;;;;11.52;6.07;;;17.70;72.70;;;;;;4208212;28;20059;-57